createdAt,value
2017-12-25T00:11:54.326Z,99062.14
2017-12-25T00:32:27.793Z,99043.48
2017-12-25T00:53:00.568Z,99026.98
2017-12-25T01:13:35.534Z,99011.48
2017-12-25T01:34:10.191Z,99010.78
2017-12-25T01:54:45.467Z,98991.39
2017-12-25T02:15:18.899Z,98991.38
2017-12-25T02:35:50.779Z,98972.22
2017-12-25T02:56:29.126Z,98958.02
2017-12-25T03:17:01.554Z,98958.63
2017-12-25T03:37:36.596Z,98935.68
2017-12-25T03:58:11.212Z,98921.56
2017-12-25T04:18:47.256Z,98906.72
2017-12-25T04:39:21.181Z,98886.97
2017-12-25T04:59:53.383Z,98870.49
2017-12-25T05:20:28.650Z,98853.59
2017-12-25T05:41:03.122Z,98844.63
2017-12-25T06:01:39.375Z,98835.97
2017-12-25T06:22:12.573Z,98815.72
2017-12-25T06:42:45.783Z,98808.55
2017-12-25T07:03:18.994Z,98794.45
2017-12-25T07:23:50.762Z,98782.16
2017-12-25T07:44:24.461Z,98780.56
2017-12-25T08:04:56.397Z,98780.32
2017-12-25T08:25:32.586Z,98757.38
2017-12-25T08:46:05.707Z,98764.11
2017-12-25T09:06:40.057Z,98758.53
2017-12-25T09:27:12.485Z,98747.04
2017-12-25T09:47:44.684Z,98736.67
2017-12-25T10:08:16.660Z,98703.75
2017-12-25T10:28:50.098Z,98680.14
2017-12-25T10:49:22.899Z,98658.06
2017-12-25T11:09:57.250Z,98612.05
2017-12-25T11:30:29.450Z,98578.88
2017-12-25T11:51:04.718Z,98543.69
2017-12-25T12:11:39.173Z,98504.14
2017-12-25T12:32:08.478Z,98463.77
2017-12-25T12:52:41.319Z,98443.19
2017-12-25T13:13:14.448Z,98404.32
2017-12-25T13:33:48.802Z,98373.62
2017-12-25T13:54:24.980Z,98349.41
2017-12-25T14:15:04.250Z,98349.30
2017-12-25T14:35:41.365Z,98333.05
2017-12-25T14:56:15.712Z,98304.69
2017-12-25T15:16:48.835Z,98261.86
2017-12-25T15:37:27.795Z,98265.99
2017-12-25T15:58:01.226Z,98253.02
2017-12-25T16:18:34.648Z,98229.77
2017-12-25T16:39:06.849Z,98211.83
2017-12-25T16:59:41.817Z,98186.54
2017-12-25T17:20:20.556Z,98167.02
2017-12-25T17:40:55.783Z,98138.95
2017-12-25T18:01:30.704Z,98116.92
2017-12-25T18:22:05.971Z,98117.67
2017-12-25T18:42:38.172Z,98090.38
2017-12-25T19:03:11.653Z,98076.45
2017-12-25T19:23:46.928Z,98039.70
2017-12-25T20:02:19.512Z,97989.63
2017-12-25T20:22:54.788Z,97954.86
2017-12-25T20:43:28.836Z,97931.16
2017-12-25T21:04:01.037Z,97908.51
2017-12-25T21:24:36.669Z,97889.17
2017-12-25T21:45:07.582Z,97876.77
2017-12-25T22:05:41.063Z,97860.14
2017-12-25T22:26:14.131Z,97837.59
2017-12-25T22:46:46.330Z,97805.98
2017-12-25T23:07:20.069Z,97779.80
2017-12-25T23:27:52.907Z,97765.44
2017-12-25T23:48:25.171Z,97720.83
